Time;durP1;ratioP1;P1;durP2;ratioP2;P2;SDS_P1;SDS_P2;PMS_P1;PMS_P2;Temp;Humidity;BMP_temperature;BMP_pressure;BME280_temperature;BME280_humidity;BME280_pressure;Samples;Min_cycle;Max_cycle;Signal;HPM_P1;HPM_P2
2022/04/17 00:00:23;;;;;;;5.63;3.25;;;9.20;63.10;;;;;;5075494;28;20043;-73
2022/04/17 00:02:48;;;;;;;4.82;3.40;;;9.10;63.60;;;;;;5075616;28;20032;-73
2022/04/17 00:05:14;;;;;;;6.50;3.30;;;9.10;64.70;;;;;;5075511;28;20034;-73
2022/04/17 00:07:40;;;;;;;6.65;3.75;;;9.10;65.60;;;;;;5075550;28;20098;-73
2022/04/17 00:10:08;;;;;;;7.13;4.20;;;9.00;66.60;;;;;;5075391;28;20108;-73
2022/04/17 00:12:34;;;;;;;5.15;3.63;;;9.00;67.70;;;;;;5075461;28;20040;-73
2022/04/17 00:15:03;;;;;;;4.88;3.40;;;9.00;67.50;;;;;;5075627;28;20071;-73
2022/04/17 00:17:29;;;;;;;5.57;3.42;;;8.90;68.10;;;;;;5075355;28;20039;-73
2022/04/17 00:19:55;;;;;;;4.75;3.38;;;8.90;67.90;;;;;;5075228;28;20120;-73
2022/04/17 00:22:20;;;;;;;4.82;3.33;;;8.90;68.90;;;;;;5075308;28;20036;-73
2022/04/17 00:24:46;;;;;;;6.72;3.90;;;8.80;69.10;;;;;;5075573;28;20028;-73
2022/04/17 00:27:12;;;;;;;6.57;3.70;;;8.80;68.60;;;;;;5075262;28;20450;-73
2022/04/17 00:29:37;;;;;;;5.28;3.83;;;8.80;69.00;;;;;;5075137;28;20036;-73
2022/04/17 00:32:04;;;;;;;6.75;3.85;;;8.70;69.70;;;;;;5075191;28;20042;-73
2022/04/17 00:34:30;;;;;;;6.18;4.07;;;8.70;70.90;;;;;;5075230;28;20039;-73
2022/04/17 00:37:00;;;;;;;5.65;4.05;;;8.70;71.20;;;;;;5075233;28;20050;-73
2022/04/17 00:39:29;;;;;;;6.05;4.00;;;8.70;72.70;;;;;;5058265;28;20051;-73
2022/04/17 00:41:55;;;;;;;5.80;4.05;;;8.70;73.50;;;;;;5075149;28;20070;-73
2022/04/17 00:44:21;;;;;;;6.72;4.13;;;8.60;73.70;;;;;;5075005;28;20078;-73
2022/04/17 00:46:47;;;;;;;5.85;3.85;;;8.60;72.90;;;;;;5075313;28;20063;-73
2022/04/17 00:49:12;;;;;;;7.63;4.55;;;8.50;73.90;;;;;;5074962;28;20043;-73
2022/04/17 00:51:40;;;;;;;8.88;3.90;;;8.50;73.90;;;;;;5058339;28;20055;-73
2022/04/17 00:54:08;;;;;;;7.82;4.00;;;8.50;73.90;;;;;;5075029;28;20044;-73
2022/04/17 00:56:34;;;;;;;8.02;4.65;;;8.50;75.20;;;;;;5074943;28;20094;-73
2022/04/17 00:59:02;;;;;;;6.85;4.10;;;8.50;75.50;;;;;;5075099;28;20040;-73
2022/04/17 01:01:32;;;;;;;7.97;4.75;;;8.50;76.00;;;;;;5074971;28;20048;-73
2022/04/17 01:03:58;;;;;;;7.70;4.53;;;8.50;76.40;;;;;;5076347;28;20036;-73
2022/04/17 01:06:24;;;;;;;9.93;4.80;;;8.40;76.90;;;;;;5079216;28;20047;-73
2022/04/17 01:08:50;;;;;;;8.23;4.47;;;8.40;77.20;;;;;;5079038;28;20129;-73
2022/04/17 01:11:17;;;;;;;7.43;4.65;;;8.40;76.60;;;;;;5079059;28;20515;-73
2022/04/17 01:13:43;;;;;;;6.15;4.28;;;8.40;77.10;;;;;;5079015;28;20127;-73
2022/04/17 01:16:09;;;;;;;7.90;4.63;;;8.40;78.40;;;;;;5078655;28;20154;-73
2022/04/17 01:19:01;;;;;;;6.38;4.20;;;8.40;79.40;;;;;;5078501;28;20102;-73
2022/04/17 01:21:28;;;;;;;6.70;4.60;;;8.40;80.10;;;;;;5078788;28;20040;-73
2022/04/17 01:26:58;;;;;;;6.85;4.43;;;8.30;81.80;;;;;;5078715;28;20138;-73
2022/04/17 01:29:42;;;;;;;7.43;4.90;;;8.30;81.40;;;;;;5078362;28;20523;-73
2022/04/17 01:32:09;;;;;;;8.00;4.30;;;8.30;81.80;;;;;;5078393;28;20036;-73
2022/04/17 01:34:36;;;;;;;8.45;5.35;;;8.20;82.70;;;;;;5061941;28;20081;-73
2022/04/17 01:37:02;;;;;;;6.63;4.50;;;8.20;84.10;;;;;;5078299;28;20040;-73
2022/04/17 01:39:28;;;;;;;8.38;4.72;;;8.20;84.90;;;;;;5078238;28;20043;-73
2022/04/17 01:41:55;;;;;;;8.15;4.82;;;8.20;86.80;;;;;;5078209;28;20032;-73
2022/04/17 01:44:21;;;;;;;7.30;5.22;;;8.10;85.40;;;;;;5061584;28;20040;-73
2022/04/17 01:46:48;;;;;;;7.50;4.55;;;8.10;85.90;;;;;;5078356;28;20040;-73
2022/04/17 01:49:17;;;;;;;6.80;4.75;;;8.10;87.20;;;;;;5077972;28;20043;-73
2022/04/17 01:51:44;;;;;;;7.88;4.82;;;8.10;88.20;;;;;;5078035;28;20040;-73
2022/04/17 01:54:12;;;;;;;7.68;5.30;;;8.10;86.70;;;;;;5078265;28;20391;-73
2022/04/17 01:56:39;;;;;;;6.05;4.68;;;8.00;87.00;;;;;;5078228;28;20056;-73
2022/04/17 01:59:06;;;;;;;6.60;4.70;;;8.00;89.30;;;;;;5078045;28;20066;-73
2022/04/17 02:01:36;;;;;;;8.23;5.40;;;8.00;90.00;;;;;;5077875;28;20040;-73
2022/04/17 02:04:03;;;;;;;8.93;5.38;;;8.00;88.90;;;;;;5077843;28;20119;-73
2022/04/17 02:06:29;;;;;;;7.45;4.97;;;7.90;90.40;;;;;;5078019;28;20411;-73
2022/04/17 02:08:55;;;;;;;10.32;5.35;;;7.90;90.40;;;;;;5077678;28;20123;-73
2022/04/17 02:11:22;;;;;;;7.40;5.35;;;7.90;90.80;;;;;;5061270;28;20040;-73
2022/04/17 02:13:48;;;;;;;7.22;5.07;;;7.90;90.60;;;;;;5077610;28;20083;-73
2022/04/17 02:16:15;;;;;;;7.88;5.32;;;7.90;90.70;;;;;;5077206;28;20048;-73
2022/04/17 02:18:40;;;;;;;6.90;5.32;;;7.90;91.60;;;;;;5077668;28;20416;-73
2022/04/17 02:21:08;;;;;;;8.45;5.65;;;7.80;91.10;;;;;;5077461;28;20032;-73
2022/04/17 02:23:33;;;;;;;8.02;5.55;;;7.80;92.20;;;;;;5077497;28;20036;-73
2022/04/17 02:26:00;;;;;;;8.20;5.63;;;7.80;92.10;;;;;;5077411;28;20142;-73
2022/04/17 02:28:27;;;;;;;8.63;5.50;;;7.80;93.00;;;;;;5077547;28;20131;-73
2022/04/17 02:30:52;;;;;;;8.40;5.45;;;7.80;92.90;;;;;;5077270;28;20044;-73
2022/04/17 02:33:19;;;;;;;8.45;5.15;;;7.70;93.00;;;;;;5077512;28;20165;-73
2022/04/17 02:35:45;;;;;;;11.48;5.55;;;7.70;93.00;;;;;;5077251;28;20159;-73
2022/04/17 02:38:10;;;;;;;8.52;5.45;;;7.60;93.90;;;;;;5077069;28;20136;-73
2022/04/17 02:40:36;;;;;;;8.70;5.57;;;7.60;94.50;;;;;;5077047;28;20047;-73
2022/04/17 02:43:02;;;;;;;8.70;5.57;;;7.60;95.00;;;;;;5077363;28;20028;-73
2022/04/17 02:45:28;;;;;;;9.10;5.45;;;7.60;95.40;;;;;;5076857;28;20533;-73
2022/04/17 02:47:53;;;;;;;8.93;5.70;;;7.60;95.10;;;;;;5076978;28;20036;-73
2022/04/17 02:50:20;;;;;;;10.45;6.10;;;7.50;95.00;;;;;;5076926;28;20052;-73
2022/04/17 02:52:46;;;;;;;8.68;5.45;;;7.50;95.20;;;;;;5076934;28;20036;-73
2022/04/17 02:55:12;;;;;;;6.78;5.60;;;7.50;95.60;;;;;;5076839;28;20047;-73
2022/04/17 02:57:38;;;;;;;8.52;5.95;;;7.40;95.30;;;;;;5076775;28;20044;-73
2022/04/17 03:00:06;;;;;;;8.90;5.75;;;7.40;95.60;;;;;;5076611;28;20036;-73
2022/04/17 03:05:36;;;;;;;8.30;5.65;;;7.40;96.10;;;;;;5076603;28;20036;-73
2022/04/17 03:08:13;;;;;;;10.68;5.90;;;7.40;96.70;;;;;;5076830;28;20086;-73
2022/04/17 03:10:40;;;;;;;8.98;5.78;;;7.40;96.70;;;;;;5076550;28;20071;-73
2022/04/17 03:13:07;;;;;;;7.85;5.50;;;7.30;96.40;;;;;;5076450;28;20048;-73
2022/04/17 03:15:34;;;;;;;7.25;5.50;;;7.30;96.40;;;;;;5076392;28;20044;-73
2022/04/17 03:18:00;;;;;;;9.30;6.13;;;7.30;96.50;;;;;;5076334;28;20478;-73
2022/04/17 03:20:26;;;;;;;7.93;5.90;;;7.30;97.30;;;;;;5076142;28;20050;-73
2022/04/17 03:22:52;;;;;;;8.48;5.70;;;7.30;96.90;;;;;;5076252;28;20040;-73
2022/04/17 03:25:18;;;;;;;9.73;5.20;;;7.30;96.60;;;;;;5076444;28;20412;-73
2022/04/17 03:27:46;;;;;;;8.63;6.03;;;7.30;96.60;;;;;;5075397;28;20386;-73
2022/04/17 03:30:14;;;;;;;9.38;5.90;;;7.30;96.60;;;;;;5075984;28;20050;-73
2022/04/17 03:32:40;;;;;;;8.25;5.72;;;7.30;96.70;;;;;;5076051;28;20048;-73
2022/04/17 03:35:06;;;;;;;10.70;6.00;;;7.20;97.10;;;;;;5076104;28;20040;-73
2022/04/17 03:37:32;;;;;;;9.05;5.88;;;7.20;96.90;;;;;;5076213;28;20047;-73
2022/04/17 03:39:57;;;;;;;8.75;6.25;;;7.20;97.10;;;;;;5075905;28;20115;-73
2022/04/17 03:42:23;;;;;;;9.23;6.50;;;7.20;97.80;;;;;;5075982;28;20036;-73
2022/04/17 03:44:49;;;;;;;8.35;6.13;;;7.10;97.80;;;;;;5075772;28;20047;-73
2022/04/17 03:47:14;;;;;;;10.45;5.88;;;7.20;97.70;;;;;;5075838;28;20036;-73
2022/04/17 03:49:40;;;;;;;9.45;5.78;;;7.10;97.40;;;;;;5075687;28;20127;-73
2022/04/17 03:52:06;;;;;;;9.63;5.53;;;7.10;98.00;;;;;;5059116;28;20082;-73
2022/04/17 03:54:31;;;;;;;9.27;5.80;;;7.10;98.60;;;;;;5058958;28;20452;-73
2022/04/17 03:56:57;;;;;;;9.25;6.15;;;7.10;98.20;;;;;;5075669;28;20040;-73
2022/04/17 03:59:23;;;;;;;9.30;5.63;;;7.10;98.20;;;;;;5075487;28;20036;-73
2022/04/17 04:01:48;;;;;;;9.25;5.82;;;7.00;98.60;;;;;;5075555;28;20040;-73
2022/04/17 04:04:15;;;;;;;7.90;5.70;;;7.00;98.20;;;;;;5075587;28;20100;-73
2022/04/17 04:06:41;;;;;;;9.52;5.88;;;7.00;98.40;;;;;;5058751;28;20083;-73
2022/04/17 04:09:06;;;;;;;10.30;6.07;;;7.00;98.40;;;;;;5058743;28;20043;-73
2022/04/17 04:11:32;;;;;;;9.20;6.28;;;7.00;98.70;;;;;;5075434;28;20040;-73
2022/04/17 04:13:58;;;;;;;10.07;6.95;;;7.00;99.50;;;;;;5075391;28;20036;-73
2022/04/17 04:16:23;;;;;;;10.70;6.38;;;6.90;99.20;;;;;;5075631;28;20038;-73
2022/04/17 04:18:49;;;;;;;11.48;6.90;;;6.90;99.50;;;;;;5058557;28;20178;-73
2022/04/17 04:21:14;;;;;;;9.90;6.15;;;6.90;99.60;;;;;;5075353;28;20408;-73
2022/04/17 04:23:41;;;;;;;9.85;5.97;;;6.80;99.70;;;;;;5075576;28;20051;-73
2022/04/17 04:26:07;;;;;;;9.88;6.10;;;6.80;99.80;;;;;;5075266;28;20466;-73
2022/04/17 04:28:33;;;;;;;7.78;5.93;;;6.80;99.70;;;;;;5075148;28;20055;-73
2022/04/17 04:31:19;;;;;;;10.55;6.10;;;6.80;99.90;;;;;;5075503;28;20438;-73
2022/04/17 04:33:44;;;;;;;8.45;6.10;;;6.80;99.90;;;;;;5075056;28;20040;-73
2022/04/17 04:36:11;;;;;;;10.07;6.45;;;6.80;99.90;;;;;;5075165;28;20557;-73
2022/04/17 04:38:38;;;;;;;9.15;6.07;;;6.70;99.90;;;;;;5074781;28;20411;-73
2022/04/17 04:41:03;;;;;;;8.80;6.40;;;6.80;99.90;;;;;;5075735;28;20519;-74
2022/04/17 04:43:30;;;;;;;9.48;6.13;;;6.70;99.90;;;;;;5076600;28;20036;-74
2022/04/17 04:46:07;;;;;;;10.20;6.20;;;6.80;99.90;;;;;;5059958;28;20043;-74
2022/04/17 04:51:26;;;;;;;10.38;6.47;;;6.80;99.90;;;;;;5076536;28;20044;-74
2022/04/17 04:53:52;;;;;;;11.88;6.82;;;6.70;99.90;;;;;;5076512;28;20036;-74
2022/04/17 04:56:20;;;;;;;11.30;6.60;;;6.80;99.90;;;;;;5076869;28;20078;-74
2022/04/17 04:58:46;;;;;;;8.88;6.40;;;6.80;99.90;;;;;;5076649;28;20046;-74
2022/04/17 05:01:12;;;;;;;10.82;6.47;;;6.70;99.90;;;;;;5059505;28;20032;-74
2022/04/17 05:03:39;;;;;;;11.82;6.28;;;6.80;99.90;;;;;;5076815;28;20382;-74
2022/04/17 05:06:04;;;;;;;11.05;6.57;;;6.70;99.90;;;;;;5076234;28;20507;-74
2022/04/17 05:08:30;;;;;;;9.45;6.90;;;6.80;99.90;;;;;;5076071;28;20122;-74
2022/04/17 05:10:56;;;;;;;9.68;6.35;;;6.80;99.90;;;;;;5076613;28;20032;-74
2022/04/17 05:13:22;;;;;;;9.60;6.43;;;6.70;99.90;;;;;;5076520;28;20040;-74
2022/04/17 05:15:47;;;;;;;10.63;6.63;;;6.80;99.90;;;;;;5076617;28;20051;-74
2022/04/17 05:18:13;;;;;;;16.02;6.72;;;6.80;99.90;;;;;;5076372;28;20493;-74
2022/04/17 05:20:39;;;;;;;10.80;6.32;;;6.80;99.90;;;;;;5076184;28;20032;-75
2022/04/17 05:23:19;;;;;;;9.75;6.20;;;6.80;99.90;;;;;;5060133;28;20047;-75
2022/04/17 05:25:47;;;;;;;11.05;7.03;;;6.80;99.90;;;;;;5059878;28;20032;-75
2022/04/17 05:28:14;;;;;;;9.18;6.72;;;6.90;99.70;;;;;;5076426;28;20039;-75
2022/04/17 05:30:40;;;;;;;10.82;7.10;;;6.90;99.50;;;;;;5076475;28;20087;-75
2022/04/17 05:33:06;;;;;;;13.02;6.57;;;6.90;99.40;;;;;;5059810;28;20036;-75
2022/04/17 05:35:32;;;;;;;8.80;5.95;;;7.00;99.30;;;;;;5076210;28;20042;-75
2022/04/17 05:37:57;;;;;;;9.88;6.53;;;7.00;99.70;;;;;;5076240;28;20039;-74
2022/04/17 05:40:23;;;;;;;10.40;6.43;;;7.00;99.40;;;;;;5059515;28;20036;-74
2022/04/17 05:42:48;;;;;;;9.43;6.00;;;7.10;99.30;;;;;;5076447;28;20043;-74
2022/04/17 05:45:14;;;;;;;9.38;6.57;;;7.10;99.40;;;;;;5076076;28;20441;-74
2022/04/17 05:47:40;;;;;;;10.52;6.82;;;7.20;99.40;;;;;;5059457;28;20123;-74
2022/04/17 05:50:06;;;;;;;9.88;6.68;;;7.20;99.40;;;;;;5077340;28;20043;-74
2022/04/17 05:52:32;;;;;;;7.82;6.03;;;7.30;99.40;;;;;;5079924;28;20036;-75
2022/04/17 05:54:58;;;;;;;11.20;6.57;;;7.30;99.20;;;;;;5063043;28;20185;-75
2022/04/17 05:57:24;;;;;;;8.73;6.03;;;7.40;99.10;;;;;;5079338;28;20051;-75
2022/04/17 05:59:49;;;;;;;12.25;7.05;;;7.40;98.70;;;;;;5078534;28;20047;-74
2022/04/17 06:02:15;;;;;;;11.48;6.97;;;7.40;98.60;;;;;;5078940;28;20039;-74
2022/04/17 06:04:41;;;;;;;10.38;6.88;;;7.40;98.40;;;;;;5078939;28;20122;-74
2022/04/17 06:07:08;;;;;;;9.70;6.60;;;7.50;98.30;;;;;;5078468;28;20047;-74
2022/04/17 06:09:34;;;;;;;10.52;6.55;;;7.50;98.40;;;;;;5079041;28;20043;-74
2022/04/17 06:12:00;;;;;;;9.45;6.60;;;7.60;98.60;;;;;;5078844;28;20047;-74
2022/04/17 06:14:26;;;;;;;9.82;6.68;;;7.50;98.90;;;;;;5061629;28;20036;-75
2022/04/17 06:16:51;;;;;;;9.48;6.45;;;7.60;98.90;;;;;;5062140;28;20040;-74
2022/04/17 06:19:17;;;;;;;10.32;7.05;;;7.60;98.70;;;;;;5079612;28;20040;-75
2022/04/17 06:21:43;;;;;;;8.07;6.20;;;7.70;98.80;;;;;;5078772;28;20507;-74
2022/04/17 06:24:08;;;;;;;10.38;6.75;;;7.70;98.70;;;;;;5078842;28;20051;-74
2022/04/17 06:26:34;;;;;;;11.05;7.05;;;7.80;99.20;;;;;;5078813;28;20062;-74
2022/04/17 06:29:05;;;;;;;9.90;7.13;;;7.80;98.70;;;;;;5078048;28;20040;-75
2022/04/17 06:31:32;;;;;;;8.68;6.40;;;7.80;98.60;;;;;;5077954;28;20032;-74
2022/04/17 06:33:58;;;;;;;11.25;7.30;;;7.80;98.90;;;;;;5077987;28;20039;-74
2022/04/17 06:36:23;;;;;;;13.05;6.82;;;7.90;98.50;;;;;;5061011;28;20036;-74
2022/04/17 06:38:49;;;;;;;12.48;6.57;;;7.90;98.60;;;;;;5077993;28;20229;-74
2022/04/17 06:41:14;;;;;;;10.68;7.18;;;8.00;98.20;;;;;;5077993;28;20047;-74
2022/04/17 06:43:40;;;;;;;10.00;6.60;;;8.00;97.90;;;;;;5078184;28;20035;-74
2022/04/17 06:46:05;;;;;;;9.93;6.93;;;8.10;97.90;;;;;;5078407;28;20443;-74
2022/04/17 06:48:31;;;;;;;10.50;6.50;;;8.10;97.70;;;;;;5061272;28;20122;-74
2022/04/17 06:50:58;;;;;;;9.30;6.90;;;8.20;98.00;;;;;;5077934;28;20048;-74
2022/04/17 06:53:24;;;;;;;9.55;6.60;;;8.30;97.90;;;;;;5077598;28;20046;-74
2022/04/17 06:55:50;;;;;;;10.23;6.90;;;8.30;97.50;;;;;;5077783;28;20035;-75
2022/04/17 06:58:17;;;;;;;11.25;7.35;;;8.40;97.30;;;;;;5078042;28;20077;-74
2022/04/17 07:00:42;;;;;;;9.63;6.53;;;8.50;97.70;;;;;;5060623;28;20043;-74
2022/04/17 07:03:08;;;;;;;11.45;6.88;;;8.60;97.50;;;;;;5077698;28;20040;-74
2022/04/17 07:05:34;;;;;;;13.07;7.53;;;8.70;97.50;;;;;;5077290;28;20036;-74
2022/04/17 07:08:02;;;;;;;9.07;6.40;;;8.80;97.20;;;;;;5077741;28;20048;-74
2022/04/17 07:10:29;;;;;;;8.77;6.55;;;8.80;97.40;;;;;;5077918;28;20103;-74
2022/04/17 07:12:55;;;;;;;10.18;6.90;;;8.90;97.30;;;;;;5077756;28;20047;-74
2022/04/17 07:15:21;;;;;;;10.32;6.65;;;9.00;97.30;;;;;;5077980;28;20036;-73
2022/04/17 07:17:47;;;;;;;10.98;6.75;;;9.10;96.00;;;;;;5062928;28;20040;-73
2022/04/17 07:20:15;;;;;;;8.27;6.00;;;9.20;95.80;;;;;;5077980;28;20040;-74
2022/04/17 07:22:42;;;;;;;10.23;6.63;;;9.30;95.50;;;;;;5077694;28;20044;-74
2022/04/17 07:25:09;;;;;;;8.43;5.95;;;9.40;95.30;;;;;;5078066;28;20048;-74
2022/04/17 07:27:36;;;;;;;9.68;6.45;;;9.40;94.20;;;;;;5076732;28;20035;-74
2022/04/17 07:30:03;;;;;;;8.40;6.05;;;9.60;94.20;;;;;;5076606;28;20051;-73
2022/04/17 07:32:30;;;;;;;9.48;5.68;;;9.70;93.40;;;;;;5059844;28;20460;-74
2022/04/17 07:34:59;;;;;;;8.93;6.25;;;9.80;92.40;;;;;;5076351;28;20048;-74
2022/04/17 07:37:28;;;;;;;9.80;6.65;;;9.90;90.10;;;;;;5076336;28;20040;-73
2022/04/17 07:39:54;;;;;;;12.43;6.20;;;10.00;90.70;;;;;;5076650;28;20508;-74
2022/04/17 07:42:21;;;;;;;9.32;6.20;;;10.20;89.70;;;;;;5077069;28;20048;-74
2022/04/17 07:44:48;;;;;;;7.93;6.30;;;10.30;89.00;;;;;;5076942;28;20409;-74
2022/04/17 07:47:14;;;;;;;13.38;6.32;;;10.30;86.60;;;;;;5060546;28;20063;-74
2022/04/17 07:49:40;;;;;;;8.80;5.82;;;10.50;84.20;;;;;;5060618;28;20067;-74
2022/04/17 07:52:07;;;;;;;8.02;6.20;;;10.60;81.30;;;;;;5076568;28;20412;-74
2022/04/17 07:54:32;;;;;;;8.43;5.82;;;10.70;83.00;;;;;;5076658;28;20114;-74
2022/04/17 07:56:58;;;;;;;8.15;5.40;;;10.90;79.50;;;;;;5062849;28;20058;-75
2022/04/17 07:59:25;;;;;;;8.57;6.00;;;11.00;74.10;;;;;;5076556;28;20043;-74
2022/04/17 08:01:50;;;;;;;7.28;5.32;;;11.10;73.50;;;;;;5076733;28;20066;-74
2022/04/17 08:04:16;;;;;;;9.65;5.80;;;11.20;72.70;;;;;;5077271;28;20040;-75
2022/04/17 08:06:42;;;;;;;11.00;5.65;;;11.30;72.80;;;;;;5076846;28;20028;-74
2022/04/17 08:09:07;;;;;;;8.90;5.78;;;11.40;73.60;;;;;;5078555;28;20512;-75
2022/04/17 08:11:34;;;;;;;9.88;5.70;;;11.50;71.90;;;;;;5077328;28;20043;-75
2022/04/17 08:13:59;;;;;;;8.40;5.57;;;11.60;70.00;;;;;;5076150;28;20113;-74
2022/04/17 08:16:25;;;;;;;8.82;5.65;;;11.80;70.90;;;;;;5077009;28;20040;-74
2022/04/17 08:18:50;;;;;;;7.85;5.72;;;12.00;68.20;;;;;;5076186;28;20527;-74
2022/04/17 08:21:16;;;;;;;8.90;5.32;;;12.10;68.60;;;;;;5078764;28;20028;-74
2022/04/17 08:23:42;;;;;;;9.52;5.75;;;12.30;68.10;;;;;;5075816;28;20036;-74
2022/04/17 08:26:08;;;;;;;7.70;4.78;;;12.40;66.60;;;;;;5075928;28;20068;-74
2022/04/17 08:28:33;;;;;;;8.30;5.20;;;12.60;63.90;;;;;;5076025;28;20098;-75
2022/04/17 08:30:59;;;;;;;8.95;5.28;;;12.80;63.20;;;;;;5075883;28;20123;-74
2022/04/17 08:33:26;;;;;;;7.65;4.85;;;12.90;61.80;;;;;;5075770;28;20043;-74
2022/04/17 08:35:55;;;;;;;6.70;4.60;;;13.10;62.10;;;;;;5075808;28;20055;-74
2022/04/17 08:38:22;;;;;;;8.38;5.38;;;13.20;61.50;;;;;;5058649;28;20044;-74
2022/04/17 08:40:50;;;;;;;6.65;4.20;;;13.30;58.90;;;;;;5058638;28;20409;-74
2022/04/17 08:43:21;;;;;;;7.63;5.07;;;13.50;56.70;;;;;;5075183;28;20036;-74
2022/04/17 08:45:50;;;;;;;6.70;4.45;;;13.60;57.20;;;;;;5075699;28;20040;-74
2022/04/17 08:48:16;;;;;;;7.53;4.50;;;13.70;56.60;;;;;;5075309;28;20067;-74
2022/04/17 08:50:42;;;;;;;7.15;4.25;;;13.80;55.60;;;;;;5075746;28;20138;-74
2022/04/17 08:53:09;;;;;;;7.18;4.38;;;13.80;55.90;;;;;;5058557;28;20536;-74
2022/04/17 08:55:35;;;;;;;8.65;4.05;;;13.80;55.90;;;;;;5075338;28;20050;-74
2022/04/17 08:58:00;;;;;;;6.30;4.30;;;13.90;55.00;;;;;;5058549;28;20040;-74
2022/04/17 09:00:26;;;;;;;6.82;4.28;;;13.80;54.10;;;;;;5075046;28;20044;-74
2022/04/17 09:02:52;;;;;;;8.38;4.13;;;14.00;54.20;;;;;;5075420;28;20040;-74
2022/04/17 09:05:19;;;;;;;5.88;3.95;;;14.10;53.60;;;;;;5075467;28;20036;-74
2022/04/17 09:07:47;;;;;;;6.63;3.88;;;14.30;53.10;;;;;;5075149;28;20031;-74
2022/04/17 09:10:26;;;;;;;6.13;3.97;;;14.50;53.20;;;;;;5075037;28;20075;-74
2022/04/17 09:13:00;;;;;;;5.90;4.45;;;14.80;53.00;;;;;;5075354;28;20442;-74
2022/04/17 09:15:28;;;;;;;6.68;4.32;;;15.00;53.60;;;;;;5075265;28;20032;-74
2022/04/17 09:17:54;;;;;;;6.70;4.45;;;15.30;52.40;;;;;;5075016;28;20411;-75
2022/04/17 09:20:25;;;;;;;9.85;4.15;;;15.40;50.70;;;;;;5074800;28;20036;-75
2022/04/17 09:22:55;;;;;;;6.78;3.75;;;15.50;50.60;;;;;;5075381;28;20039;-75
2022/04/17 09:25:28;;;;;;;7.25;4.13;;;15.40;50.70;;;;;;5077275;28;20036;-75
2022/04/17 09:28:01;;;;;;;5.45;3.80;;;15.30;50.90;;;;;;5079903;28;20047;-75
2022/04/17 09:30:28;;;;;;;7.97;4.20;;;15.30;50.40;;;;;;5062255;28;20177;-75
2022/04/17 09:32:55;;;;;;;8.05;4.32;;;15.40;51.60;;;;;;5078895;28;20048;-75
2022/04/17 09:35:25;;;;;;;6.65;4.35;;;15.50;51.90;;;;;;5078310;28;20043;-75
2022/04/17 09:37:59;;;;;;;9.43;4.25;;;15.60;51.80;;;;;;5078675;28;20101;-75
2022/04/17 09:40:29;;;;;;;7.05;4.47;;;15.90;51.10;;;;;;5061771;28;20123;-74
2022/04/17 09:43:10;;;;;;;6.20;4.20;;;16.20;50.20;;;;;;5078721;28;20239;-75
2022/04/17 09:46:02;;;;;;;6.30;4.13;;;16.40;48.40;;;;;;5078268;28;20492;-75
2022/04/17 09:48:39;;;;;;;6.85;4.20;;;16.70;50.00;;;;;;5078242;28;20039;-75
2022/04/17 09:51:25;;;;;;;6.32;3.88;;;16.90;48.10;;;;;;5078774;28;20028;-75
2022/04/17 09:54:08;;;;;;;6.57;4.00;;;17.00;47.10;;;;;;5078147;28;20535;-75
2022/04/17 09:56:43;;;;;;;4.88;3.70;;;16.90;47.40;;;;;;5078423;28;20046;-75
2022/04/17 09:59:17;;;;;;;7.10;4.32;;;16.70;48.30;;;;;;5078054;28;20076;-74
2022/04/17 10:01:49;;;;;;;5.55;3.97;;;16.70;47.50;;;;;;5078331;28;20032;-75
2022/04/17 10:04:24;;;;;;;6.05;4.40;;;16.70;47.80;;;;;;5078117;28;20032;-75
2022/04/17 10:06:55;;;;;;;6.22;3.80;;;16.70;47.60;;;;;;5086293;28;20058;-75
2022/04/17 10:09:21;;;;;;;6.70;4.40;;;16.60;48.00;;;;;;5062477;28;20043;-75
2022/04/17 10:11:49;;;;;;;5.55;3.92;;;16.50;47.80;;;;;;5061829;28;20089;-75
2022/04/17 10:14:15;;;;;;;5.28;3.33;;;16.40;47.80;;;;;;5078084;28;20040;-75
2022/04/17 10:16:42;;;;;;;6.85;3.30;;;16.40;46.50;;;;;;5061313;28;20393;-74
2022/04/17 10:19:13;;;;;;;4.50;2.80;;;16.50;46.50;;;;;;5078063;28;20126;-74
2022/04/17 10:21:39;;;;;;;4.38;2.70;;;16.60;45.80;;;;;;5077975;28;20044;-75
2022/04/17 10:24:07;;;;;;;6.07;3.47;;;16.70;45.70;;;;;;5077727;28;20059;-75
2022/04/17 10:26:38;;;;;;;4.60;2.97;;;16.90;45.40;;;;;;5077803;28;20044;-75
2022/04/17 10:29:07;;;;;;;4.45;3.25;;;17.10;44.30;;;;;;5077567;28;20066;-75
2022/04/17 10:32:39;;;;;;;7.70;3.67;;;17.20;43.10;;;;;;5077589;28;20557;-75
2022/04/17 10:35:35;;;;;;;5.38;4.20;;;17.10;44.80;;;;;;5013737;28;20522;-75
2022/04/17 10:38:22;;;;;;;6.13;4.03;;;17.50;44.80;;;;;;4997258;28;20041;-75
2022/04/17 10:41:07;;;;;;;6.15;3.72;;;17.70;45.20;;;;;;4997200;28;20498;-75
2022/04/17 10:43:42;;;;;;;8.02;4.05;;;17.80;44.40;;;;;;4997570;28;20046;-72
2022/04/17 10:46:12;;;;;;;7.20;3.90;;;17.70;45.10;;;;;;4996845;28;20048;-73
2022/04/17 10:48:51;;;;;;;8.73;3.55;;;18.00;44.80;;;;;;4997007;28;20034;-73
2022/04/17 10:51:26;;;;;;;5.40;3.33;;;18.10;44.50;;;;;;4996740;28;20050;-73
2022/04/17 10:54:11;;;;;;;5.70;3.75;;;18.40;44.30;;;;;;4996931;28;20048;-72
2022/04/17 10:56:37;;;;;;;5.57;3.42;;;18.60;42.30;;;;;;5013200;28;20499;-72
2022/04/17 10:59:12;;;;;;;6.60;3.85;;;18.60;42.60;;;;;;4996677;28;20085;-72
2022/04/17 11:01:43;;;;;;;5.28;3.20;;;18.70;42.20;;;;;;4996571;28;20049;-72
2022/04/17 11:04:15;;;;;;;5.80;3.50;;;18.90;42.90;;;;;;4996487;28;20572;-72
2022/04/17 11:06:42;;;;;;;5.60;4.82;;;19.20;41.60;;;;;;5076620;28;20043;-73
2022/04/17 11:09:20;;;;;;;7.55;5.30;;;19.40;42.20;;;;;;5076853;28;20027;-72
2022/04/17 11:11:46;;;;;;;5.38;3.80;;;19.60;40.00;;;;;;5076649;28;20450;-72
2022/04/17 11:14:21;;;;;;;7.05;4.03;;;19.60;40.30;;;;;;5076510;28;20036;-72
2022/04/17 11:16:54;;;;;;;5.97;3.20;;;19.70;39.30;;;;;;5059847;28;20082;-73
2022/04/17 11:19:24;;;;;;;3.33;2.50;;;19.50;39.80;;;;;;5076287;28;20044;-73
2022/04/17 11:21:52;;;;;;;4.93;3.13;;;19.50;40.00;;;;;;5076388;28;20085;-73
2022/04/17 11:24:19;;;;;;;5.10;2.80;;;19.70;39.00;;;;;;5076292;28;20032;-73
2022/04/17 11:26:52;;;;;;;4.63;2.88;;;20.00;38.30;;;;;;5076592;28;20040;-73
2022/04/17 11:30:02;;;;;;;4.30;2.75;;;20.20;37.40;;;;;;5076446;28;20126;-73
2022/04/17 11:32:27;;;;;;;5.80;3.00;;;20.40;37.00;;;;;;4996035;28;20085;-73
2022/04/17 11:34:54;;;;;;;3.70;2.78;;;20.50;37.50;;;;;;4996117;28;20037;-73
2022/04/17 11:37:21;;;;;;;5.35;3.20;;;20.70;37.40;;;;;;4996030;28;20076;-73
2022/04/17 11:39:47;;;;;;;3.90;2.75;;;20.80;36.90;;;;;;4995627;28;20077;-73
2022/04/17 11:42:13;;;;;;;4.03;2.80;;;20.90;36.40;;;;;;5012120;28;20537;-72
2022/04/17 11:44:46;;;;;;;4.90;2.78;;;20.90;36.80;;;;;;4995825;28;20046;-72
2022/04/17 11:47:18;;;;;;;5.95;2.80;;;20.90;36.90;;;;;;5011402;28;20503;-73
2022/04/17 11:49:46;;;;;;;5.53;3.17;;;21.10;36.30;;;;;;4978938;28;20050;-73
2022/04/17 11:52:17;;;;;;;4.32;2.97;;;21.20;37.10;;;;;;4995531;28;20138;-72
2022/04/17 11:54:44;;;;;;;4.45;2.67;;;21.20;36.50;;;;;;4995802;28;20132;-72
2022/04/17 11:57:13;;;;;;;4.45;2.97;;;21.20;37.40;;;;;;4995690;28;20054;-73
2022/04/17 11:59:55;;;;;;;5.18;3.38;;;21.10;36.80;;;;;;4995287;28;20046;-73
2022/04/17 12:02:25;;;;;;;5.47;3.67;;;21.10;36.80;;;;;;5012208;28;20104;-73
2022/04/17 12:04:54;;;;;;;8.10;3.47;;;21.30;36.70;;;;;;4995338;28;20041;-72
2022/04/17 12:07:21;;;;;;;7.32;3.63;;;21.20;36.00;;;;;;4995416;28;20148;-73
2022/04/17 12:09:47;;;;;;;4.28;3.17;;;21.30;36.10;;;;;;5067032;28;20547;-73
2022/04/17 12:12:17;;;;;;;4.60;3.00;;;21.40;35.60;;;;;;5075473;28;20454;-72
2022/04/17 12:14:45;;;;;;;3.97;2.83;;;21.40;35.50;;;;;;5075481;28;20503;-72
2022/04/17 12:17:12;;;;;;;6.10;3.22;;;21.50;35.60;;;;;;5075376;28;20039;-72
2022/04/17 12:19:38;;;;;;;6.60;3.13;;;21.60;35.00;;;;;;5058433;28;20087;-72
2022/04/17 12:22:12;;;;;;;4.28;3.10;;;21.70;35.10;;;;;;5075292;28;20036;-72
2022/04/17 12:24:43;;;;;;;4.55;3.15;;;21.80;35.30;;;;;;5075301;28;20040;-72
2022/04/17 12:27:09;;;;;;;6.28;3.50;;;22.00;35.00;;;;;;5075378;28;20036;-70
2022/04/17 12:29:38;;;;;;;5.93;3.45;;;21.90;34.70;;;;;;5075167;28;20501;-70
2022/04/17 12:32:15;;;;;;;5.18;3.47;;;21.90;35.20;;;;;;5075501;28;20043;-70
2022/04/17 12:34:45;;;;;;;5.85;3.50;;;22.00;34.70;;;;;;5075255;28;20052;-70
2022/04/17 12:37:30;;;;;;;4.82;3.42;;;22.00;35.00;;;;;;5075140;28;20055;-71
2022/04/17 12:40:21;;;;;;;5.85;3.25;;;21.80;34.10;;;;;;5075161;28;20404;-70
2022/04/17 12:42:48;;;;;;;6.45;3.80;;;21.40;35.30;;;;;;5075170;28;20036;-70
2022/04/17 12:45:26;;;;;;;6.18;3.97;;;21.30;36.80;;;;;;5075008;28;20032;-70
2022/04/17 12:48:06;;;;;;;5.38;3.95;;;21.40;35.70;;;;;;5075042;28;20115;-71
2022/04/17 12:50:32;;;;;;;7.75;4.47;;;21.60;35.60;;;;;;5075182;28;20385;-71
2022/04/17 12:52:59;;;;;;;6.32;4.38;;;21.20;35.40;;;;;;5075014;28;20131;-71
2022/04/17 12:55:36;;;;;;;5.78;4.05;;;21.10;35.60;;;;;;5093058;28;20039;-71
2022/04/17 12:58:02;;;;;;;6.53;4.07;;;21.20;36.30;;;;;;5075267;28;20067;-71
2022/04/17 13:00:30;;;;;;;5.63;3.72;;;21.40;36.70;;;;;;5078846;28;20072;-71
2022/04/17 13:03:09;;;;;;;6.03;4.30;;;21.50;36.20;;;;;;5079054;28;20074;-71
2022/04/17 13:05:35;;;;;;;6.85;4.57;;;21.50;35.00;;;;;;5079283;28;20047;-71